sensor_id;sensor_type;location;lat;lon;timestamp;P1;durP1;ratioP1;P2;durP2;ratioP2
29214;SDS011;16252;49.816;7.964;2023-05-07T00:00:58;1.55;;;1.45;;
29214;SDS011;16252;49.816;7.964;2023-05-07T00:03:24;1.95;;;1.50;;
29214;SDS011;16252;49.816;7.964;2023-05-07T00:05:51;2.20;;;1.63;;
29214;SDS011;16252;49.816;7.964;2023-05-07T00:08:17;1.90;;;1.70;;
29214;SDS011;16252;49.816;7.964;2023-05-07T00:10:43;2.33;;;1.58;;
29214;SDS011;16252;49.816;7.964;2023-05-07T00:13:08;5.55;;;1.83;;
29214;SDS011;16252;49.816;7.964;2023-05-07T00:15:33;2.70;;;1.45;;
29214;SDS011;16252;49.816;7.964;2023-05-07T00:17:59;3.90;;;1.50;;
29214;SDS011;16252;49.816;7.964;2023-05-07T00:20:24;1.80;;;1.40;;
29214;SDS011;16252;49.816;7.964;2023-05-07T00:22:49;1.73;;;1.35;;
29214;SDS011;16252;49.816;7.964;2023-05-07T00:25:15;2.42;;;1.40;;
29214;SDS011;16252;49.816;7.964;2023-05-07T00:27:40;1.90;;;1.65;;
29214;SDS011;16252;49.816;7.964;2023-05-07T00:30:05;4.80;;;1.33;;
29214;SDS011;16252;49.816;7.964;2023-05-07T00:32:31;2.28;;;1.58;;
29214;SDS011;16252;49.816;7.964;2023-05-07T00:34:57;1.80;;;1.42;;
29214;SDS011;16252;49.816;7.964;2023-05-07T00:37:22;2.10;;;1.58;;
29214;SDS011;16252;49.816;7.964;2023-05-07T00:39:47;2.53;;;1.40;;
29214;SDS011;16252;49.816;7.964;2023-05-07T00:42:13;2.17;;;1.50;;
29214;SDS011;16252;49.816;7.964;2023-05-07T00:44:39;2.58;;;1.45;;
29214;SDS011;16252;49.816;7.964;2023-05-07T00:47:05;2.10;;;1.50;;
29214;SDS011;16252;49.816;7.964;2023-05-07T00:49:35;1.63;;;1.40;;
29214;SDS011;16252;49.816;7.964;2023-05-07T00:52:03;2.10;;;1.48;;
29214;SDS011;16252;49.816;7.964;2023-05-07T00:54:30;2.33;;;1.60;;
29214;SDS011;16252;49.816;7.964;2023-05-07T00:56:55;2.42;;;1.55;;
29214;SDS011;16252;49.816;7.964;2023-05-07T00:59:21;2.40;;;1.60;;
29214;SDS011;16252;49.816;7.964;2023-05-07T01:01:46;2.85;;;1.58;;
29214;SDS011;16252;49.816;7.964;2023-05-07T01:04:11;1.77;;;1.50;;
29214;SDS011;16252;49.816;7.964;2023-05-07T01:06:37;1.65;;;1.50;;
29214;SDS011;16252;49.816;7.964;2023-05-07T01:09:03;2.70;;;1.58;;
29214;SDS011;16252;49.816;7.964;2023-05-07T01:11:29;1.40;;;1.30;;
29214;SDS011;16252;49.816;7.964;2023-05-07T01:13:55;3.67;;;1.65;;
29214;SDS011;16252;49.816;7.964;2023-05-07T01:16:21;1.80;;;1.50;;
29214;SDS011;16252;49.816;7.964;2023-05-07T01:18:47;2.97;;;1.55;;
29214;SDS011;16252;49.816;7.964;2023-05-07T01:21:13;1.70;;;1.60;;
29214;SDS011;16252;49.816;7.964;2023-05-07T01:23:42;5.22;;;1.75;;
29214;SDS011;16252;49.816;7.964;2023-05-07T01:26:08;1.90;;;1.63;;
29214;SDS011;16252;49.816;7.964;2023-05-07T01:28:33;2.92;;;1.70;;
29214;SDS011;16252;49.816;7.964;2023-05-07T01:31:00;1.55;;;1.40;;
29214;SDS011;16252;49.816;7.964;2023-05-07T01:35:56;2.58;;;1.60;;
29214;SDS011;16252;49.816;7.964;2023-05-07T01:38:25;2.38;;;1.65;;
29214;SDS011;16252;49.816;7.964;2023-05-07T01:40:51;1.70;;;1.55;;
29214;SDS011;16252;49.816;7.964;2023-05-07T01:43:16;2.67;;;1.70;;
29214;SDS011;16252;49.816;7.964;2023-05-07T01:45:42;2.67;;;1.60;;
29214;SDS011;16252;49.816;7.964;2023-05-07T01:48:10;1.90;;;1.60;;
29214;SDS011;16252;49.816;7.964;2023-05-07T01:50:36;2.28;;;1.92;;
29214;SDS011;16252;49.816;7.964;2023-05-07T01:53:02;2.58;;;1.67;;
29214;SDS011;16252;49.816;7.964;2023-05-07T01:55:27;2.25;;;1.77;;
29214;SDS011;16252;49.816;7.964;2023-05-07T01:57:52;2.13;;;1.65;;
29214;SDS011;16252;49.816;7.964;2023-05-07T02:00:18;1.58;;;1.40;;
29214;SDS011;16252;49.816;7.964;2023-05-07T02:02:44;1.77;;;1.50;;
29214;SDS011;16252;49.816;7.964;2023-05-07T02:05:09;1.55;;;1.45;;
29214;SDS011;16252;49.816;7.964;2023-05-07T02:07:35;1.65;;;1.55;;
29214;SDS011;16252;49.816;7.964;2023-05-07T02:10:00;3.65;;;1.88;;
29214;SDS011;16252;49.816;7.964;2023-05-07T02:12:25;2.30;;;1.60;;
29214;SDS011;16252;49.816;7.964;2023-05-07T02:14:51;2.63;;;1.70;;
29214;SDS011;16252;49.816;7.964;2023-05-07T02:17:16;3.17;;;1.80;;
29214;SDS011;16252;49.816;7.964;2023-05-07T02:19:41;2.20;;;1.52;;
29214;SDS011;16252;49.816;7.964;2023-05-07T02:22:07;2.10;;;1.60;;
29214;SDS011;16252;49.816;7.964;2023-05-07T02:24:32;1.67;;;1.50;;
29214;SDS011;16252;49.816;7.964;2023-05-07T02:26:57;7.05;;;2.00;;
29214;SDS011;16252;49.816;7.964;2023-05-07T02:29:23;1.75;;;1.50;;
29214;SDS011;16252;49.816;7.964;2023-05-07T02:31:48;2.03;;;1.55;;
29214;SDS011;16252;49.816;7.964;2023-05-07T02:34:17;1.60;;;1.50;;
29214;SDS011;16252;49.816;7.964;2023-05-07T02:36:43;1.98;;;1.52;;
29214;SDS011;16252;49.816;7.964;2023-05-07T02:39:08;2.05;;;1.70;;
29214;SDS011;16252;49.816;7.964;2023-05-07T02:41:34;1.65;;;1.45;;
29214;SDS011;16252;49.816;7.964;2023-05-07T02:43:59;2.47;;;1.70;;
29214;SDS011;16252;49.816;7.964;2023-05-07T02:46:25;1.70;;;1.58;;
29214;SDS011;16252;49.816;7.964;2023-05-07T02:48:50;2.55;;;1.83;;
29214;SDS011;16252;49.816;7.964;2023-05-07T02:51:17;2.15;;;1.52;;
29214;SDS011;16252;49.816;7.964;2023-05-07T02:53:45;4.40;;;1.70;;
29214;SDS011;16252;49.816;7.964;2023-05-07T02:56:10;2.47;;;1.77;;
29214;SDS011;16252;49.816;7.964;2023-05-07T02:58:36;2.35;;;1.75;;
29214;SDS011;16252;49.816;7.964;2023-05-07T03:01:01;1.98;;;1.70;;
29214;SDS011;16252;49.816;7.964;2023-05-07T03:03:26;2.47;;;1.50;;
29214;SDS011;16252;49.816;7.964;2023-05-07T03:05:52;3.00;;;1.50;;
29214;SDS011;16252;49.816;7.964;2023-05-07T03:08:17;3.00;;;1.30;;
29214;SDS011;16252;49.816;7.964;2023-05-07T03:10:42;2.33;;;1.50;;
29214;SDS011;16252;49.816;7.964;2023-05-07T03:13:07;1.83;;;1.50;;
29214;SDS011;16252;49.816;7.964;2023-05-07T03:15:33;1.58;;;1.30;;
29214;SDS011;16252;49.816;7.964;2023-05-07T03:17:58;2.67;;;1.75;;
29214;SDS011;16252;49.816;7.964;2023-05-07T03:20:23;2.88;;;1.50;;
29214;SDS011;16252;49.816;7.964;2023-05-07T03:22:49;2.13;;;1.50;;
29214;SDS011;16252;49.816;7.964;2023-05-07T03:25:14;2.90;;;1.70;;
29214;SDS011;16252;49.816;7.964;2023-05-07T03:27:39;1.58;;;1.48;;
29214;SDS011;16252;49.816;7.964;2023-05-07T03:30:06;3.17;;;1.55;;
29214;SDS011;16252;49.816;7.964;2023-05-07T03:32:33;3.67;;;1.60;;
29214;SDS011;16252;49.816;7.964;2023-05-07T03:34:59;2.75;;;1.70;;
29214;SDS011;16252;49.816;7.964;2023-05-07T03:37:24;1.60;;;1.50;;
29214;SDS011;16252;49.816;7.964;2023-05-07T03:39:50;2.20;;;1.55;;
29214;SDS011;16252;49.816;7.964;2023-05-07T03:42:15;1.77;;;1.65;;
29214;SDS011;16252;49.816;7.964;2023-05-07T03:44:40;3.03;;;1.85;;
29214;SDS011;16252;49.816;7.964;2023-05-07T03:47:06;1.58;;;1.48;;
29214;SDS011;16252;49.816;7.964;2023-05-07T03:49:31;2.30;;;1.77;;
29214;SDS011;16252;49.816;7.964;2023-05-07T03:51:56;3.05;;;1.70;;
29214;SDS011;16252;49.816;7.964;2023-05-07T03:54:21;2.67;;;1.80;;
29214;SDS011;16252;49.816;7.964;2023-05-07T03:56:47;2.78;;;1.67;;
29214;SDS011;16252;49.816;7.964;2023-05-07T03:59:12;2.97;;;1.65;;
29214;SDS011;16252;49.816;7.964;2023-05-07T04:01:38;2.72;;;1.80;;
29214;SDS011;16252;49.816;7.964;2023-05-07T04:04:03;2.55;;;1.55;;
29214;SDS011;16252;49.816;7.964;2023-05-07T04:06:29;3.42;;;1.83;;
29214;SDS011;16252;49.816;7.964;2023-05-07T04:08:54;1.90;;;1.42;;
29214;SDS011;16252;49.816;7.964;2023-05-07T04:11:20;1.67;;;1.50;;
29214;SDS011;16252;49.816;7.964;2023-05-07T04:13:45;4.53;;;1.67;;
29214;SDS011;16252;49.816;7.964;2023-05-07T04:16:10;3.80;;;2.08;;
29214;SDS011;16252;49.816;7.964;2023-05-07T04:18:36;2.13;;;1.70;;
29214;SDS011;16252;49.816;7.964;2023-05-07T04:21:01;2.35;;;1.73;;
29214;SDS011;16252;49.816;7.964;2023-05-07T04:23:26;2.20;;;1.40;;
29214;SDS011;16252;49.816;7.964;2023-05-07T04:25:51;2.05;;;1.60;;
29214;SDS011;16252;49.816;7.964;2023-05-07T04:28:17;1.58;;;1.40;;
29214;SDS011;16252;49.816;7.964;2023-05-07T04:30:43;1.70;;;1.50;;
29214;SDS011;16252;49.816;7.964;2023-05-07T04:33:08;5.53;;;1.85;;
29214;SDS011;16252;49.816;7.964;2023-05-07T04:35:33;1.45;;;1.35;;
29214;SDS011;16252;49.816;7.964;2023-05-07T04:38:00;2.92;;;1.50;;
29214;SDS011;16252;49.816;7.964;2023-05-07T04:40:25;1.77;;;1.48;;
29214;SDS011;16252;49.816;7.964;2023-05-07T04:42:50;2.35;;;1.60;;
29214;SDS011;16252;49.816;7.964;2023-05-07T04:45:16;1.80;;;1.60;;
29214;SDS011;16252;49.816;7.964;2023-05-07T04:47:41;3.00;;;1.50;;
29214;SDS011;16252;49.816;7.964;2023-05-07T04:50:07;2.15;;;1.35;;
29214;SDS011;16252;49.816;7.964;2023-05-07T04:52:33;1.50;;;1.40;;
29214;SDS011;16252;49.816;7.964;2023-05-07T04:54:59;1.75;;;1.58;;
29214;SDS011;16252;49.816;7.964;2023-05-07T04:57:25;2.05;;;1.70;;
29214;SDS011;16252;49.816;7.964;2023-05-07T04:59:51;2.15;;;1.42;;
29214;SDS011;16252;49.816;7.964;2023-05-07T05:02:16;1.52;;;1.42;;
29214;SDS011;16252;49.816;7.964;2023-05-07T05:04:42;1.67;;;1.45;;
29214;SDS011;16252;49.816;7.964;2023-05-07T05:07:07;3.50;;;1.60;;
29214;SDS011;16252;49.816;7.964;2023-05-07T05:09:32;2.42;;;1.60;;
29214;SDS011;16252;49.816;7.964;2023-05-07T05:11:57;1.77;;;1.30;;
29214;SDS011;16252;49.816;7.964;2023-05-07T05:14:24;1.48;;;1.38;;
29214;SDS011;16252;49.816;7.964;2023-05-07T05:16:49;1.67;;;1.45;;
29214;SDS011;16252;49.816;7.964;2023-05-07T05:19:14;2.00;;;1.60;;
29214;SDS011;16252;49.816;7.964;2023-05-07T05:21:40;1.60;;;1.48;;
29214;SDS011;16252;49.816;7.964;2023-05-07T05:24:05;1.98;;;1.65;;
29214;SDS011;16252;49.816;7.964;2023-05-07T05:26:31;1.95;;;1.60;;
29214;SDS011;16252;49.816;7.964;2023-05-07T05:28:56;1.90;;;1.40;;
29214;SDS011;16252;49.816;7.964;2023-05-07T05:31:21;2.08;;;1.42;;
29214;SDS011;16252;49.816;7.964;2023-05-07T05:33:46;1.52;;;1.40;;
29214;SDS011;16252;49.816;7.964;2023-05-07T05:36:12;1.95;;;1.70;;
29214;SDS011;16252;49.816;7.964;2023-05-07T05:38:38;2.25;;;1.92;;
29214;SDS011;16252;49.816;7.964;2023-05-07T05:41:04;1.95;;;1.55;;
29214;SDS011;16252;49.816;7.964;2023-05-07T05:43:29;2.15;;;1.90;;
29214;SDS011;16252;49.816;7.964;2023-05-07T05:45:55;2.00;;;1.70;;
29214;SDS011;16252;49.816;7.964;2023-05-07T05:48:21;1.73;;;1.63;;
29214;SDS011;16252;49.816;7.964;2023-05-07T05:50:46;1.80;;;1.48;;
29214;SDS011;16252;49.816;7.964;2023-05-07T05:53:11;3.30;;;2.10;;
29214;SDS011;16252;49.816;7.964;2023-05-07T05:55:37;1.73;;;1.60;;
29214;SDS011;16252;49.816;7.964;2023-05-07T05:58:02;5.55;;;2.00;;
29214;SDS011;16252;49.816;7.964;2023-05-07T06:00:28;2.03;;;1.63;;
29214;SDS011;16252;49.816;7.964;2023-05-07T06:02:54;2.50;;;1.80;;
29214;SDS011;16252;49.816;7.964;2023-05-07T06:05:19;2.88;;;1.75;;
29214;SDS011;16252;49.816;7.964;2023-05-07T06:07:45;2.40;;;1.48;;
29214;SDS011;16252;49.816;7.964;2023-05-07T06:10:10;2.30;;;1.60;;
29214;SDS011;16252;49.816;7.964;2023-05-07T06:12:35;2.53;;;1.95;;
29214;SDS011;16252;49.816;7.964;2023-05-07T06:15:00;2.75;;;1.80;;
29214;SDS011;16252;49.816;7.964;2023-05-07T06:17:26;2.17;;;1.80;;
29214;SDS011;16252;49.816;7.964;2023-05-07T06:19:52;2.13;;;1.65;;
29214;SDS011;16252;49.816;7.964;2023-05-07T06:22:17;2.42;;;2.05;;
29214;SDS011;16252;49.816;7.964;2023-05-07T06:24:42;2.72;;;1.98;;
29214;SDS011;16252;49.816;7.964;2023-05-07T06:27:08;1.80;;;1.52;;
29214;SDS011;16252;49.816;7.964;2023-05-07T06:29:33;2.05;;;1.60;;
29214;SDS011;16252;49.816;7.964;2023-05-07T06:32:11;3.92;;;1.88;;
29214;SDS011;16252;49.816;7.964;2023-05-07T06:34:37;1.98;;;1.65;;
29214;SDS011;16252;49.816;7.964;2023-05-07T06:37:04;1.88;;;1.40;;
29214;SDS011;16252;49.816;7.964;2023-05-07T06:39:30;3.25;;;1.90;;
29214;SDS011;16252;49.816;7.964;2023-05-07T06:41:55;2.45;;;1.88;;
29214;SDS011;16252;49.816;7.964;2023-05-07T06:44:20;1.67;;;1.38;;
29214;SDS011;16252;49.816;7.964;2023-05-07T06:46:46;1.50;;;1.40;;
29214;SDS011;16252;49.816;7.964;2023-05-07T06:49:14;2.35;;;1.60;;
29214;SDS011;16252;49.816;7.964;2023-05-07T06:51:39;3.13;;;1.92;;
29214;SDS011;16252;49.816;7.964;2023-05-07T06:54:05;1.85;;;1.67;;
29214;SDS011;16252;49.816;7.964;2023-05-07T06:56:30;2.58;;;1.95;;
29214;SDS011;16252;49.816;7.964;2023-05-07T06:58:56;2.92;;;1.70;;
29214;SDS011;16252;49.816;7.964;2023-05-07T07:01:22;2.13;;;1.80;;
29214;SDS011;16252;49.816;7.964;2023-05-07T07:03:47;1.85;;;1.65;;
29214;SDS011;16252;49.816;7.964;2023-05-07T07:06:12;2.78;;;1.77;;
29214;SDS011;16252;49.816;7.964;2023-05-07T07:08:38;2.45;;;1.67;;
29214;SDS011;16252;49.816;7.964;2023-05-07T07:11:03;2.60;;;1.55;;
29214;SDS011;16252;49.816;7.964;2023-05-07T07:13:29;2.25;;;1.40;;
29214;SDS011;16252;49.816;7.964;2023-05-07T07:15:55;1.38;;;1.27;;
29214;SDS011;16252;49.816;7.964;2023-05-07T07:18:20;1.90;;;1.70;;
29214;SDS011;16252;49.816;7.964;2023-05-07T07:20:45;2.55;;;1.60;;
29214;SDS011;16252;49.816;7.964;2023-05-07T07:23:11;2.88;;;1.38;;
29214;SDS011;16252;49.816;7.964;2023-05-07T07:25:36;2.53;;;1.83;;
29214;SDS011;16252;49.816;7.964;2023-05-07T07:28:01;1.83;;;1.58;;
29214;SDS011;16252;49.816;7.964;2023-05-07T07:30:27;1.90;;;1.60;;
29214;SDS011;16252;49.816;7.964;2023-05-07T07:32:52;2.42;;;1.60;;
29214;SDS011;16252;49.816;7.964;2023-05-07T07:35:18;2.38;;;2.00;;
29214;SDS011;16252;49.816;7.964;2023-05-07T07:37:43;2.35;;;1.90;;
29214;SDS011;16252;49.816;7.964;2023-05-07T07:40:08;1.60;;;1.50;;
29214;SDS011;16252;49.816;7.964;2023-05-07T07:42:34;2.55;;;1.70;;
29214;SDS011;16252;49.816;7.964;2023-05-07T07:44:59;2.13;;;1.70;;
29214;SDS011;16252;49.816;7.964;2023-05-07T07:47:25;2.08;;;1.83;;
29214;SDS011;16252;49.816;7.964;2023-05-07T07:49:50;2.20;;;1.67;;
29214;SDS011;16252;49.816;7.964;2023-05-07T07:52:15;2.58;;;1.80;;
29214;SDS011;16252;49.816;7.964;2023-05-07T07:54:40;4.88;;;1.70;;
29214;SDS011;16252;49.816;7.964;2023-05-07T07:57:06;2.53;;;1.67;;
29214;SDS011;16252;49.816;7.964;2023-05-07T07:59:31;2.58;;;1.50;;
29214;SDS011;16252;49.816;7.964;2023-05-07T08:01:56;6.43;;;2.22;;
29214;SDS011;16252;49.816;7.964;2023-05-07T08:04:22;3.35;;;2.30;;
29214;SDS011;16252;49.816;7.964;2023-05-07T08:06:47;2.13;;;1.58;;
29214;SDS011;16252;49.816;7.964;2023-05-07T08:09:12;2.30;;;1.90;;
29214;SDS011;16252;49.816;7.964;2023-05-07T08:11:38;2.15;;;1.77;;
29214;SDS011;16252;49.816;7.964;2023-05-07T08:14:03;3.03;;;2.30;;
29214;SDS011;16252;49.816;7.964;2023-05-07T08:16:29;2.38;;;1.75;;
29214;SDS011;16252;49.816;7.964;2023-05-07T08:18:55;1.88;;;1.67;;
29214;SDS011;16252;49.816;7.964;2023-05-07T08:21:20;2.33;;;1.83;;
29214;SDS011;16252;49.816;7.964;2023-05-07T08:23:46;2.40;;;1.73;;
29214;SDS011;16252;49.816;7.964;2023-05-07T08:26:11;3.60;;;1.80;;
29214;SDS011;16252;49.816;7.964;2023-05-07T08:28:36;2.30;;;1.88;;
29214;SDS011;16252;49.816;7.964;2023-05-07T08:31:02;2.92;;;1.73;;
29214;SDS011;16252;49.816;7.964;2023-05-07T08:33:27;3.05;;;1.90;;
29214;SDS011;16252;49.816;7.964;2023-05-07T08:35:52;2.95;;;1.80;;
29214;SDS011;16252;49.816;7.964;2023-05-07T08:38:18;1.65;;;1.55;;
29214;SDS011;16252;49.816;7.964;2023-05-07T08:40:43;2.95;;;1.75;;
29214;SDS011;16252;49.816;7.964;2023-05-07T08:43:08;2.05;;;1.80;;
29214;SDS011;16252;49.816;7.964;2023-05-07T08:45:39;2.67;;;1.88;;
29214;SDS011;16252;49.816;7.964;2023-05-07T08:48:07;2.20;;;1.90;;
29214;SDS011;16252;49.816;7.964;2023-05-07T08:50:35;1.50;;;1.40;;
29214;SDS011;16252;49.816;7.964;2023-05-07T08:53:02;1.65;;;1.50;;
29214;SDS011;16252;49.816;7.964;2023-05-07T08:55:28;2.92;;;1.85;;
29214;SDS011;16252;49.816;7.964;2023-05-07T08:57:53;1.90;;;1.70;;
29214;SDS011;16252;49.816;7.964;2023-05-07T09:00:19;2.05;;;1.50;;
29214;SDS011;16252;49.816;7.964;2023-05-07T09:02:44;2.00;;;1.80;;
29214;SDS011;16252;49.816;7.964;2023-05-07T09:05:09;1.92;;;1.73;;
29214;SDS011;16252;49.816;7.964;2023-05-07T09:07:36;2.15;;;1.70;;
29214;SDS011;16252;49.816;7.964;2023-05-07T09:10:04;3.25;;;1.55;;
29214;SDS011;16252;49.816;7.964;2023-05-07T09:12:30;2.42;;;1.55;;
29214;SDS011;16252;49.816;7.964;2023-05-07T09:14:56;2.28;;;1.60;;
29214;SDS011;16252;49.816;7.964;2023-05-07T09:17:21;2.10;;;1.60;;
29214;SDS011;16252;49.816;7.964;2023-05-07T09:19:47;1.60;;;1.50;;
29214;SDS011;16252;49.816;7.964;2023-05-07T09:22:13;2.47;;;1.70;;
29214;SDS011;16252;49.816;7.964;2023-05-07T09:24:38;3.83;;;1.50;;
29214;SDS011;16252;49.816;7.964;2023-05-07T09:27:04;1.92;;;1.52;;
29214;SDS011;16252;49.816;7.964;2023-05-07T09:29:31;2.17;;;1.80;;
29214;SDS011;16252;49.816;7.964;2023-05-07T09:32:04;2.20;;;1.30;;
29214;SDS011;16252;49.816;7.964;2023-05-07T09:34:30;2.25;;;1.60;;
29214;SDS011;16252;49.816;7.964;2023-05-07T09:36:56;2.95;;;1.35;;
29214;SDS011;16252;49.816;7.964;2023-05-07T09:39:23;1.92;;;1.55;;
29214;SDS011;16252;49.816;7.964;2023-05-07T09:41:49;1.80;;;1.50;;
29214;SDS011;16252;49.816;7.964;2023-05-07T09:44:16;1.80;;;1.48;;
29214;SDS011;16252;49.816;7.964;2023-05-07T09:46:42;1.80;;;1.50;;
29214;SDS011;16252;49.816;7.964;2023-05-07T09:49:22;3.40;;;1.35;;
29214;SDS011;16252;49.816;7.964;2023-05-07T09:51:49;1.73;;;1.50;;
29214;SDS011;16252;49.816;7.964;2023-05-07T09:54:16;2.35;;;1.40;;
29214;SDS011;16252;49.816;7.964;2023-05-07T09:56:43;2.05;;;1.30;;
29214;SDS011;16252;49.816;7.964;2023-05-07T09:59:10;1.92;;;1.42;;
29214;SDS011;16252;49.816;7.964;2023-05-07T10:01:38;1.35;;;1.25;;
29214;SDS011;16252;49.816;7.964;2023-05-07T10:04:06;1.95;;;1.20;;
29214;SDS011;16252;49.816;7.964;2023-05-07T10:06:33;1.20;;;1.10;;
29214;SDS011;16252;49.816;7.964;2023-05-07T10:08:59;2.03;;;1.60;;
29214;SDS011;16252;49.816;7.964;2023-05-07T10:11:25;1.35;;;1.25;;
29214;SDS011;16252;49.816;7.964;2023-05-07T10:13:51;1.58;;;1.17;;
29214;SDS011;16252;49.816;7.964;2023-05-07T10:16:17;1.67;;;1.15;;
29214;SDS011;16252;49.816;7.964;2023-05-07T10:18:43;1.05;;;0.95;;
29214;SDS011;16252;49.816;7.964;2023-05-07T10:21:19;1.70;;;1.38;;
29214;SDS011;16252;49.816;7.964;2023-05-07T10:23:46;1.98;;;1.30;;
29214;SDS011;16252;49.816;7.964;2023-05-07T10:26:15;1.20;;;1.02;;
29214;SDS011;16252;49.816;7.964;2023-05-07T10:28:43;1.90;;;1.20;;
29214;SDS011;16252;49.816;7.964;2023-05-07T10:34:13;1.63;;;1.45;;
29214;SDS011;16252;49.816;7.964;2023-05-07T10:36:42;1.20;;;1.10;;
29214;SDS011;16252;49.816;7.964;2023-05-07T10:39:08;1.73;;;1.30;;
29214;SDS011;16252;49.816;7.964;2023-05-07T10:41:34;1.88;;;1.42;;
29214;SDS011;16252;49.816;7.964;2023-05-07T10:44:00;1.83;;;1.30;;
29214;SDS011;16252;49.816;7.964;2023-05-07T10:46:27;2.08;;;1.30;;
29214;SDS011;16252;49.816;7.964;2023-05-07T10:51:27;1.25;;;1.15;;
29214;SDS011;16252;49.816;7.964;2023-05-07T10:54:39;2.35;;;1.10;;
29214;SDS011;16252;49.816;7.964;2023-05-07T10:56:41;1.65;;;1.20;;
29214;SDS011;16252;49.816;7.964;2023-05-07T11:01:59;1.40;;;1.20;;
29214;SDS011;16252;49.816;7.964;2023-05-07T11:04:28;1.23;;;1.13;;
29214;SDS011;16252;49.816;7.964;2023-05-07T11:13:02;2.50;;;1.23;;
29214;SDS011;16252;49.816;7.964;2023-05-07T11:15:15;1.45;;;1.15;;
29214;SDS011;16252;49.816;7.964;2023-05-07T11:18:01;1.58;;;1.27;;
29214;SDS011;16252;49.816;7.964;2023-05-07T11:20:47;1.60;;;1.45;;
29214;SDS011;16252;49.816;7.964;2023-05-07T11:26:02;1.80;;;1.45;;
29214;SDS011;16252;49.816;7.964;2023-05-07T11:28:36;1.52;;;1.40;;
29214;SDS011;16252;49.816;7.964;2023-05-07T11:31:02;2.10;;;1.50;;
29214;SDS011;16252;49.816;7.964;2023-05-07T11:33:28;2.10;;;1.70;;
29214;SDS011;16252;49.816;7.964;2023-05-07T11:35:54;1.38;;;1.27;;
29214;SDS011;16252;49.816;7.964;2023-05-07T11:38:21;1.75;;;1.50;;
29214;SDS011;16252;49.816;7.964;2023-05-07T11:43:15;1.67;;;1.58;;
29214;SDS011;16252;49.816;7.964;2023-05-07T11:45:41;1.70;;;1.42;;
29214;SDS011;16252;49.816;7.964;2023-05-07T11:48:06;1.50;;;1.40;;
29214;SDS011;16252;49.816;7.964;2023-05-07T11:50:31;2.05;;;1.70;;
29214;SDS011;16252;49.816;7.964;2023-05-07T11:52:57;2.15;;;1.50;;
29214;SDS011;16252;49.816;7.964;2023-05-07T11:55:23;1.70;;;1.60;;
29214;SDS011;16252;49.816;7.964;2023-05-07T11:57:49;1.58;;;1.45;;
29214;SDS011;16252;49.816;7.964;2023-05-07T12:00:15;1.50;;;1.40;;
29214;SDS011;16252;49.816;7.964;2023-05-07T12:02:41;1.55;;;1.40;;
29214;SDS011;16252;49.816;7.964;2023-05-07T12:05:07;1.48;;;1.35;;
29214;SDS011;16252;49.816;7.964;2023-05-07T12:07:36;2.45;;;1.45;;
29214;SDS011;16252;49.816;7.964;2023-05-07T12:10:04;1.70;;;1.45;;
29214;SDS011;16252;49.816;7.964;2023-05-07T12:12:30;1.38;;;1.27;;
29214;SDS011;16252;49.816;7.964;2023-05-07T12:14:55;3.22;;;1.40;;
29214;SDS011;16252;49.816;7.964;2023-05-07T12:17:21;1.63;;;1.30;;
29214;SDS011;16252;49.816;7.964;2023-05-07T12:19:46;1.58;;;1.40;;
29214;SDS011;16252;49.816;7.964;2023-05-07T12:22:12;1.85;;;1.35;;
29214;SDS011;16252;49.816;7.964;2023-05-07T12:24:48;1.25;;;1.13;;
29214;SDS011;16252;49.816;7.964;2023-05-07T12:27:14;3.38;;;1.27;;
29214;SDS011;16252;49.816;7.964;2023-05-07T12:29:43;2.45;;;1.38;;
29214;SDS011;16252;49.816;7.964;2023-05-07T12:32:15;2.03;;;1.50;;
29214;SDS011;16252;49.816;7.964;2023-05-07T12:34:45;1.65;;;1.35;;
29214;SDS011;16252;49.816;7.964;2023-05-07T12:37:11;2.33;;;1.70;;
29214;SDS011;16252;49.816;7.964;2023-05-07T12:39:37;2.53;;;1.42;;
29214;SDS011;16252;49.816;7.964;2023-05-07T12:42:03;1.35;;;1.23;;
29214;SDS011;16252;49.816;7.964;2023-05-07T12:44:29;1.67;;;1.40;;
29214;SDS011;16252;49.816;7.964;2023-05-07T12:46:56;2.28;;;1.30;;
29214;SDS011;16252;49.816;7.964;2023-05-07T12:49:22;2.00;;;1.30;;
29214;SDS011;16252;49.816;7.964;2023-05-07T12:51:48;1.10;;;1.05;;
29214;SDS011;16252;49.816;7.964;2023-05-07T12:54:14;1.75;;;1.15;;
29214;SDS011;16252;49.816;7.964;2023-05-07T12:57:09;1.50;;;1.40;;
29214;SDS011;16252;49.816;7.964;2023-05-07T12:59:36;2.38;;;1.08;;
29214;SDS011;16252;49.816;7.964;2023-05-07T13:02:02;1.00;;;0.90;;
29214;SDS011;16252;49.816;7.964;2023-05-07T13:04:27;2.10;;;0.90;;
29214;SDS011;16252;49.816;7.964;2023-05-07T13:06:52;1.27;;;1.17;;
29214;SDS011;16252;49.816;7.964;2023-05-07T13:09:18;2.47;;;1.50;;
29214;SDS011;16252;49.816;7.964;2023-05-07T13:11:43;1.13;;;1.02;;
29214;SDS011;16252;49.816;7.964;2023-05-07T13:14:08;1.90;;;1.05;;
29214;SDS011;16252;49.816;7.964;2023-05-07T13:16:33;2.95;;;0.98;;
29214;SDS011;16252;49.816;7.964;2023-05-07T13:18:59;2.13;;;1.10;;
29214;SDS011;16252;49.816;7.964;2023-05-07T13:21:24;1.20;;;1.02;;
29214;SDS011;16252;49.816;7.964;2023-05-07T13:23:49;1.08;;;1.00;;
29214;SDS011;16252;49.816;7.964;2023-05-07T13:26:15;2.80;;;1.20;;
29214;SDS011;16252;49.816;7.964;2023-05-07T13:28:40;1.17;;;1.08;;
29214;SDS011;16252;49.816;7.964;2023-05-07T13:31:05;0.90;;;0.90;;
29214;SDS011;16252;49.816;7.964;2023-05-07T13:33:31;1.60;;;1.00;;
29214;SDS011;16252;49.816;7.964;2023-05-07T13:35:56;1.10;;;1.00;;
29214;SDS011;16252;49.816;7.964;2023-05-07T13:38:22;3.35;;;1.10;;
29214;SDS011;16252;49.816;7.964;2023-05-07T13:40:47;1.55;;;1.08;;
29214;SDS011;16252;49.816;7.964;2023-05-07T13:43:12;2.05;;;1.27;;
29214;SDS011;16252;49.816;7.964;2023-05-07T13:45:38;2.17;;;1.15;;
29214;SDS011;16252;49.816;7.964;2023-05-07T13:48:03;1.23;;;1.10;;
29214;SDS011;16252;49.816;7.964;2023-05-07T13:50:29;1.45;;;1.30;;
29214;SDS011;16252;49.816;7.964;2023-05-07T13:52:54;1.20;;;1.10;;
29214;SDS011;16252;49.816;7.964;2023-05-07T13:55:21;1.20;;;1.10;;
29214;SDS011;16252;49.816;7.964;2023-05-07T13:57:48;2.10;;;1.33;;
29214;SDS011;16252;49.816;7.964;2023-05-07T14:00:20;1.90;;;1.20;;
29214;SDS011;16252;49.816;7.964;2023-05-07T14:02:46;1.40;;;1.13;;
29214;SDS011;16252;49.816;7.964;2023-05-07T14:05:11;2.53;;;1.17;;
29214;SDS011;16252;49.816;7.964;2023-05-07T14:07:38;1.30;;;1.20;;
29214;SDS011;16252;49.816;7.964;2023-05-07T14:10:03;3.10;;;1.00;;
29214;SDS011;16252;49.816;7.964;2023-05-07T14:12:29;1.52;;;1.05;;
29214;SDS011;16252;49.816;7.964;2023-05-07T14:14:54;1.13;;;1.00;;
29214;SDS011;16252;49.816;7.964;2023-05-07T14:17:20;1.48;;;1.30;;
29214;SDS011;16252;49.816;7.964;2023-05-07T14:19:45;1.30;;;1.10;;
29214;SDS011;16252;49.816;7.964;2023-05-07T14:22:10;1.60;;;1.25;;
29214;SDS011;16252;49.816;7.964;2023-05-07T14:24:38;2.58;;;1.20;;
29214;SDS011;16252;49.816;7.964;2023-05-07T14:27:04;0.93;;;0.90;;
29214;SDS011;16252;49.816;7.964;2023-05-07T14:29:30;1.48;;;0.90;;
29214;SDS011;16252;49.816;7.964;2023-05-07T14:31:56;1.48;;;1.00;;
29214;SDS011;16252;49.816;7.964;2023-05-07T14:34:21;2.33;;;1.20;;
29214;SDS011;16252;49.816;7.964;2023-05-07T14:36:46;1.35;;;1.00;;
29214;SDS011;16252;49.816;7.964;2023-05-07T14:39:11;1.45;;;1.05;;
29214;SDS011;16252;49.816;7.964;2023-05-07T14:41:37;0.95;;;0.88;;
29214;SDS011;16252;49.816;7.964;2023-05-07T14:44:02;0.95;;;0.90;;
29214;SDS011;16252;49.816;7.964;2023-05-07T14:46:28;1.83;;;1.00;;
29214;SDS011;16252;49.816;7.964;2023-05-07T14:48:54;0.75;;;0.75;;
29214;SDS011;16252;49.816;7.964;2023-05-07T14:51:20;1.20;;;0.98;;
29214;SDS011;16252;49.816;7.964;2023-05-07T14:53:45;1.33;;;0.98;;
29214;SDS011;16252;49.816;7.964;2023-05-07T14:56:10;1.10;;;0.95;;
29214;SDS011;16252;49.816;7.964;2023-05-07T14:58:36;1.40;;;0.95;;
29214;SDS011;16252;49.816;7.964;2023-05-07T15:01:02;1.15;;;1.05;;
29214;SDS011;16252;49.816;7.964;2023-05-07T15:03:27;3.08;;;1.10;;